createdAt,value
2023-12-09T00:01:02.529Z,100551.63
2023-12-09T00:03:30.489Z,100560.34
2023-12-09T00:05:59.927Z,100559.44
2023-12-09T00:08:27.818Z,100550.00
2023-12-09T00:10:55.667Z,100551.78
2023-12-09T00:13:23.512Z,100549.13
2023-12-09T00:15:51.397Z,100548.19
2023-12-09T00:18:19.441Z,100540.41
2023-12-09T00:20:47.547Z,100543.84
2023-12-09T00:23:16.880Z,100536.00
2023-12-09T00:25:45.312Z,100541.28
2023-12-09T00:28:13.253Z,100538.69
2023-12-09T00:30:41.169Z,100543.09
2023-12-09T00:33:09.584Z,100548.31
2023-12-09T00:35:37.508Z,100553.53
2023-12-09T00:38:05.406Z,100553.53
2023-12-09T00:40:34.606Z,100550.91
2023-12-09T00:43:02.490Z,100555.28
2023-12-09T00:45:32.244Z,100544.91
2023-12-09T00:48:00.944Z,100555.41
2023-12-09T00:50:28.936Z,100551.06
2023-12-09T00:52:56.765Z,100553.81
2023-12-09T00:55:24.597Z,100552.97
2023-12-09T00:57:53.794Z,100558.28
2023-12-09T01:00:21.919Z,100555.72
2023-12-09T01:02:49.912Z,100565.25
2023-12-09T01:05:18.029Z,100557.41
2023-12-09T01:07:46.076Z,100557.41
2023-12-09T01:10:14.101Z,100566.09
2023-12-09T01:12:42.008Z,100565.19
2023-12-09T01:15:11.847Z,100562.56
2023-12-09T01:17:39.788Z,100554.75
2023-12-09T01:20:08.937Z,100556.47
2023-12-09T01:22:36.925Z,100563.44
2023-12-09T01:25:05.460Z,100571.25
2023-12-09T01:27:33.303Z,100577.31
2023-12-09T01:30:01.370Z,100572.97
2023-12-09T01:32:30.920Z,100577.38
2023-12-09T01:34:59.220Z,100574.75
2023-12-09T01:37:27.314Z,100580.91
2023-12-09T01:39:55.139Z,100578.25
2023-12-09T01:42:23.049Z,100587.06
2023-12-09T01:44:50.927Z,100580.16
2023-12-09T01:47:18.837Z,100582.91
2023-12-09T01:49:49.022Z,100587.25
2023-12-09T01:52:17.234Z,100578.63
2023-12-09T01:54:45.087Z,100584.72
2023-12-09T01:57:13.012Z,100586.56
2023-12-09T01:59:40.908Z,100584.03
2023-12-09T02:02:09.541Z,100583.28
2023-12-09T02:04:37.733Z,100587.63
2023-12-09T02:07:07.087Z,100581.50
2023-12-09T02:09:36.147Z,100584.09
2023-12-09T02:12:08.689Z,100583.28
2023-12-09T02:14:42.044Z,100580.63
2023-12-09T02:17:14.876Z,100586.72
2023-12-09T02:19:44.007Z,100580.69
2023-12-09T02:22:13.203Z,100580.69
2023-12-09T02:24:42.413Z,100584.09
2023-12-09T02:27:13.517Z,100587.56
2023-12-09T02:29:51.989Z,100586.66
2023-12-09T02:32:23.023Z,100585.78
2023-12-09T02:34:51.799Z,100586.66
2023-12-09T02:37:21.773Z,100580.56
2023-12-09T02:39:51.733Z,100580.50
2023-12-09T02:42:20.483Z,100584.03
2023-12-09T02:44:50.215Z,100571.78
2023-12-09T02:47:18.323Z,100577.94
2023-12-09T02:49:46.261Z,100571.00
2023-12-09T02:52:14.146Z,100575.41
2023-12-09T02:54:41.958Z,100575.41
2023-12-09T02:57:11.181Z,100569.28
2023-12-09T02:59:39.196Z,100574.50
2023-12-09T03:02:07.067Z,100569.34
2023-12-09T03:04:35.413Z,100560.59
2023-12-09T03:07:03.232Z,100559.78
2023-12-09T03:09:31.132Z,100561.66
2023-12-09T03:11:58.989Z,100554.69
2023-12-09T03:14:28.192Z,100548.66
2023-12-09T03:16:56.000Z,100553.06
2023-12-09T03:19:23.954Z,100551.34
2023-12-09T03:21:51.847Z,100548.72
2023-12-09T03:24:19.707Z,100550.50
2023-12-09T03:26:51.892Z,100549.59
2023-12-09T03:29:20.553Z,100551.44
2023-12-09T03:31:50.167Z,100548.91
2023-12-09T03:34:18.251Z,100547.16
2023-12-09T03:36:46.115Z,100556.00
2023-12-09T03:39:14.378Z,100552.56
2023-12-09T03:41:42.228Z,100555.31
2023-12-09T03:44:10.094Z,100554.44
2023-12-09T03:46:38.299Z,100559.78
2023-12-09T03:49:07.978Z,100554.63
2023-12-09T03:51:36.501Z,100562.63
2023-12-09T03:54:05.204Z,100551.31
2023-12-09T03:56:33.243Z,100545.41
2023-12-09T03:59:01.422Z,100541.09
2023-12-09T04:01:29.317Z,100548.94
2023-12-09T04:03:57.889Z,100547.28
2023-12-09T04:06:27.154Z,100540.44
2023-12-09T04:08:55.015Z,100549.19
2023-12-09T04:11:22.863Z,100542.34
2023-12-09T04:13:50.681Z,100531.06
2023-12-09T04:16:18.535Z,100527.63
2023-12-09T04:18:46.482Z,100524.22
2023-12-09T04:21:14.515Z,100526.13
2023-12-09T04:23:43.750Z,100524.50
2023-12-09T04:26:11.594Z,100514.09
2023-12-09T04:28:39.481Z,100524.50
2023-12-09T04:31:07.781Z,100513.94
2023-12-09T04:33:35.961Z,100515.63
2023-12-09T04:36:04.245Z,100524.22
2023-12-09T04:38:32.189Z,100524.16
2023-12-09T04:41:02.893Z,100527.59
2023-12-09T04:43:30.826Z,100511.84
2023-12-09T04:45:58.687Z,100499.72
2023-12-09T04:48:27.449Z,100502.38
2023-12-09T04:50:55.332Z,100498.88
2023-12-09T04:53:23.225Z,100496.16
2023-12-09T04:55:51.024Z,100492.69
2023-12-09T04:58:20.603Z,100503.94
2023-12-09T05:00:48.697Z,100505.56
2023-12-09T05:03:17.277Z,100495.06
2023-12-09T05:05:45.214Z,100487.97
2023-12-09T05:08:13.063Z,100486.16
2023-12-09T05:10:40.874Z,100491.22
2023-12-09T05:13:08.680Z,100473.69
2023-12-09T05:15:38.029Z,100480.56
2023-12-09T05:18:05.970Z,100488.25
2023-12-09T05:20:34.973Z,100490.75
2023-12-09T05:23:03.953Z,100493.16
2023-12-09T05:25:32.680Z,100498.28
2023-12-09T05:28:02.285Z,100492.19
2023-12-09T05:30:30.386Z,100497.41
2023-12-09T05:33:00.368Z,100498.28
2023-12-09T05:35:28.431Z,100513.00
2023-12-09T05:37:56.323Z,100518.09
2023-12-09T05:40:24.200Z,100518.75
2023-12-09T05:42:52.201Z,100525.59
2023-12-09T05:45:20.123Z,100520.16
2023-12-09T05:47:48.013Z,100524.31
2023-12-09T05:50:17.160Z,100523.19
2023-12-09T05:52:44.990Z,100518.78
2023-12-09T05:55:16.995Z,100508.41
2023-12-09T05:57:45.130Z,100510.34
2023-12-09T06:00:14.237Z,100498.16
2023-12-09T06:02:43.223Z,100496.41
2023-12-09T06:05:11.448Z,100488.47
2023-12-09T06:07:40.660Z,100502.13
2023-12-09T06:10:09.331Z,100496.78
2023-12-09T06:12:37.492Z,100499.41
2023-12-09T06:15:06.390Z,100488.13
2023-12-09T06:17:34.390Z,100488.19
2023-12-09T06:20:02.655Z,100486.47
2023-12-09T06:22:31.618Z,100494.34
2023-12-09T06:25:00.933Z,100497.78
2023-12-09T06:27:28.775Z,100501.19
2023-12-09T06:29:56.691Z,100498.63
2023-12-09T06:32:24.773Z,100501.31
2023-12-09T06:34:52.750Z,100497.97
2023-12-09T06:37:20.772Z,100505.06
2023-12-09T06:39:48.828Z,100508.72
2023-12-09T06:42:18.111Z,100507.97
2023-12-09T06:45:07.998Z,100510.78
2023-12-09T06:47:36.335Z,100506.53
2023-12-09T06:50:04.904Z,100517.09
2023-12-09T06:52:32.644Z,100506.59
2023-12-09T06:55:00.339Z,100504.13
2023-12-09T06:57:29.602Z,100498.88
2023-12-09T06:59:57.428Z,100500.59
2023-12-09T07:02:31.341Z,100499.81
2023-12-09T07:05:05.150Z,100516.38
2023-12-09T07:07:34.096Z,100502.44
2023-12-09T07:10:01.766Z,100501.63
2023-12-09T07:12:31.251Z,100498.22
2023-12-09T07:15:00.305Z,100498.22
2023-12-09T07:17:28.691Z,100495.66
2023-12-09T07:19:57.858Z,100507.16
2023-12-09T07:22:29.002Z,100504.59
2023-12-09T07:24:57.098Z,100499.56
2023-12-09T07:27:25.048Z,100497.97
2023-12-09T07:29:54.470Z,100492.91
2023-12-09T07:32:22.700Z,100499.97
2023-12-09T07:34:51.275Z,100492.16
2023-12-09T07:37:19.685Z,100480.88
2023-12-09T07:39:47.289Z,100483.56
2023-12-09T07:42:15.062Z,100489.66
2023-12-09T07:44:42.703Z,100488.03
2023-12-09T07:47:12.055Z,100480.25
2023-12-09T07:49:40.089Z,100479.53
2023-12-09T07:52:08.160Z,100487.47
2023-12-09T07:54:35.840Z,100484.84
2023-12-09T07:57:04.079Z,100488.44
2023-12-09T07:59:31.714Z,100490.25
2023-12-09T08:01:59.778Z,100484.31
2023-12-09T08:04:28.895Z,100480.00
2023-12-09T08:06:57.131Z,100480.06
2023-12-09T08:09:25.365Z,100483.56
2023-12-09T08:11:53.797Z,100488.00
2023-12-09T08:14:22.503Z,100497.59
2023-12-09T08:16:50.195Z,100487.16
2023-12-09T08:19:18.562Z,100489.06
2023-12-09T08:21:48.371Z,100482.97
2023-12-09T08:24:16.083Z,100480.41
2023-12-09T08:26:43.820Z,100488.34
2023-12-09T08:29:12.960Z,100497.09
2023-12-09T08:31:40.613Z,100498.94
2023-12-09T08:34:08.437Z,100494.56
2023-12-09T08:36:36.426Z,100500.69
2023-12-09T08:39:05.675Z,100498.13
2023-12-09T08:41:35.803Z,100493.88
2023-12-09T08:44:04.722Z,100492.19
2023-12-09T08:46:32.343Z,100488.75
2023-12-09T08:49:00.080Z,100486.19
2023-12-09T08:51:27.813Z,100486.28
2023-12-09T08:53:55.620Z,100478.56
2023-12-09T08:56:25.383Z,100487.38
2023-12-09T08:58:53.154Z,100478.69
2023-12-09T09:01:20.762Z,100468.31
2023-12-09T09:03:48.448Z,100465.75
2023-12-09T09:06:16.241Z,100471.03
2023-12-09T09:08:45.816Z,100468.59
2023-12-09T09:11:13.934Z,100467.88
2023-12-09T09:13:43.308Z,100454.03
2023-12-09T09:16:11.263Z,100467.25
2023-12-09T09:18:38.998Z,100459.50
2023-12-09T09:21:06.895Z,100450.06
2023-12-09T09:23:35.279Z,100443.25
2023-12-09T09:26:03.351Z,100446.03
2023-12-09T09:28:31.134Z,100445.28
2023-12-09T09:31:00.821Z,100445.44
2023-12-09T09:33:31.673Z,100454.38
2023-12-09T09:35:59.924Z,100445.84
2023-12-09T09:38:27.622Z,100448.56
2023-12-09T09:40:56.944Z,100462.72
2023-12-09T09:43:28.427Z,100452.38
2023-12-09T09:46:02.634Z,100443.75
2023-12-09T09:48:34.787Z,100455.22
2023-12-09T09:51:07.406Z,100449.22
2023-12-09T09:53:38.671Z,100447.53
2023-12-09T09:56:08.621Z,100435.31
2023-12-09T09:58:36.899Z,100429.28
2023-12-09T10:01:07.931Z,100416.34
2023-12-09T10:03:35.689Z,100421.16
2023-12-09T10:06:05.471Z,100419.78
2023-12-09T10:08:33.433Z,100422.75
2023-12-09T10:11:01.157Z,100415.16
2023-12-09T10:13:28.928Z,100413.72
2023-12-09T10:15:56.566Z,100400.91
2023-12-09T10:18:26.994Z,100390.66
2023-12-09T10:20:54.788Z,100387.38
2023-12-09T10:23:23.333Z,100386.69
2023-12-09T10:25:51.066Z,100383.41
2023-12-09T10:28:18.766Z,100379.16
2023-12-09T10:30:47.621Z,100380.25
2023-12-09T10:33:17.082Z,100370.66
2023-12-09T10:35:46.604Z,100366.28
2023-12-09T10:38:17.740Z,100357.69
2023-12-09T10:40:45.789Z,100358.75
2023-12-09T10:43:14.863Z,100358.06
2023-12-09T10:45:42.712Z,100350.34
2023-12-09T10:48:10.592Z,100353.94
2023-12-09T10:50:38.853Z,100351.41
2023-12-09T10:53:08.157Z,100349.00
2023-12-09T10:55:35.845Z,100349.09
2023-12-09T10:58:06.374Z,100337.81
2023-12-09T11:00:37.586Z,100329.97
2023-12-09T11:03:08.322Z,100332.78
2023-12-09T11:05:45.583Z,100322.34
2023-12-09T11:08:16.260Z,100319.81
2023-12-09T11:10:44.329Z,100320.78
2023-12-09T11:13:12.149Z,100313.00
2023-12-09T11:15:39.869Z,100307.75
2023-12-09T11:18:10.234Z,100293.75
2023-12-09T11:20:40.913Z,100295.59
2023-12-09T11:23:11.608Z,100280.81
2023-12-09T11:25:42.341Z,100285.13
2023-12-09T11:28:12.108Z,100285.03
2023-12-09T11:30:42.088Z,100282.31
2023-12-09T11:33:11.237Z,100265.56
2023-12-09T11:35:39.809Z,100261.06
2023-12-09T11:38:09.793Z,100260.94
2023-12-09T11:40:37.762Z,100268.75
2023-12-09T11:43:09.324Z,100248.56
2023-12-09T11:45:38.037Z,100250.38
2023-12-09T11:48:07.472Z,100242.59
2023-12-09T11:50:35.504Z,100233.09
2023-12-09T11:53:03.249Z,100236.78
2023-12-09T11:55:30.905Z,100221.13
2023-12-09T11:57:58.553Z,100223.03
2023-12-09T12:00:27.901Z,100225.72
2023-12-09T12:02:55.679Z,100221.31
2023-12-09T12:05:24.171Z,100216.03
2023-12-09T12:07:52.349Z,100227.41
2023-12-09T12:10:20.112Z,100215.94
2023-12-09T12:12:47.921Z,100209.75
2023-12-09T12:15:15.791Z,100193.03
2023-12-09T12:17:45.550Z,100183.34
2023-12-09T12:20:14.108Z,100173.59
2023-12-09T12:22:42.781Z,100177.06
2023-12-09T12:25:11.386Z,100172.59
2023-12-09T12:27:45.169Z,100171.72
2023-12-09T12:30:14.367Z,100166.38
2023-12-09T12:32:42.176Z,100168.13
2023-12-09T12:35:11.943Z,100164.59
2023-12-09T12:37:39.653Z,100167.16
2023-12-09T12:40:08.815Z,100171.50
2023-12-09T12:42:37.136Z,100164.44
2023-12-09T12:45:09.462Z,100157.38
2023-12-09T12:47:37.650Z,100151.22
2023-12-09T12:50:05.944Z,100150.34
2023-12-09T12:52:34.942Z,100145.91
2023-12-09T12:55:04.107Z,100137.09
2023-12-09T12:57:31.912Z,100133.63
2023-12-09T13:00:04.129Z,100127.47
2023-12-09T13:02:37.640Z,100116.06
2023-12-09T13:05:06.102Z,100108.19
2023-12-09T13:07:35.256Z,100102.94
2023-12-09T13:10:05.039Z,100090.69
2023-12-09T13:12:32.783Z,100073.28
2023-12-09T13:15:00.562Z,100077.66
2023-12-09T13:17:28.307Z,100061.88
2023-12-09T13:19:56.082Z,100056.63
2023-12-09T13:22:24.001Z,100047.88
2023-12-09T13:24:53.266Z,100040.81
2023-12-09T13:27:21.958Z,100033.00
2023-12-09T13:29:50.155Z,100025.13
2023-12-09T13:32:17.885Z,100012.03
2023-12-09T13:34:45.569Z,99997.13
2023-12-09T13:37:13.559Z,99992.75
2023-12-09T13:39:41.904Z,99990.09
2023-12-09T13:42:13.742Z,99995.28
2023-12-09T13:44:42.121Z,99982.97
2023-12-09T13:47:09.940Z,99981.16
2023-12-09T13:49:37.808Z,99971.44
2023-12-09T13:52:06.552Z,99972.25
2023-12-09T13:54:34.452Z,99984.44
2023-12-09T13:57:02.560Z,99974.75
2023-12-09T13:59:31.668Z,99978.22
2023-12-09T14:01:59.381Z,99972.00
2023-12-09T14:04:27.241Z,99959.69
2023-12-09T14:06:55.242Z,99956.13
2023-12-09T14:09:24.273Z,99956.13
2023-12-09T14:11:52.035Z,99964.84
2023-12-09T14:14:19.758Z,99956.91
2023-12-09T14:16:49.148Z,99953.38
2023-12-09T14:19:17.275Z,99952.44
2023-12-09T14:21:45.732Z,99945.41
2023-12-09T14:24:13.572Z,99941.00
2023-12-09T14:26:41.622Z,99933.97
2023-12-09T14:29:09.328Z,99930.41
2023-12-09T14:31:37.037Z,99921.66
2023-12-09T14:34:07.011Z,99919.84
2023-12-09T14:36:35.286Z,99913.66
2023-12-09T14:39:04.497Z,99917.13
2023-12-09T14:41:32.358Z,99914.50
2023-12-09T14:44:06.043Z,99909.22
2023-12-09T14:46:36.791Z,99913.59
2023-12-09T14:49:06.240Z,99901.34
2023-12-09T14:51:40.925Z,99888.22
2023-12-09T14:54:11.889Z,99878.56
2023-12-09T14:56:39.688Z,99882.06
2023-12-09T14:59:07.688Z,99874.16
2023-12-09T15:01:35.723Z,99868.03
2023-12-09T15:04:04.400Z,99856.63
2023-12-09T15:06:34.480Z,99856.66
2023-12-09T15:09:02.517Z,99844.38
2023-12-09T15:11:30.384Z,99840.84
2023-12-09T15:13:58.103Z,99837.31
2023-12-09T15:16:27.235Z,99832.94
2023-12-09T15:18:54.991Z,99831.16
2023-12-09T15:21:23.457Z,99825.03
2023-12-09T15:23:52.522Z,99815.41
2023-12-09T15:26:20.849Z,99806.69
2023-12-09T15:28:50.440Z,99800.50
2023-12-09T15:31:18.333Z,99787.38
2023-12-09T15:33:46.216Z,99775.94
2023-12-09T15:36:14.791Z,99778.56
2023-12-09T15:38:42.864Z,99768.94
2023-12-09T15:41:12.002Z,99770.69
2023-12-09T15:43:40.105Z,99758.41
2023-12-09T15:46:08.069Z,99752.28
2023-12-09T15:48:36.098Z,99754.88
2023-12-09T15:51:06.285Z,99747.84
2023-12-09T15:53:38.109Z,99733.84
2023-12-09T15:56:07.310Z,99731.19
2023-12-09T15:58:37.003Z,99723.28
2023-12-09T16:01:05.193Z,99715.38
2023-12-09T16:03:33.075Z,99706.59
2023-12-09T16:06:00.868Z,99693.44
2023-12-09T16:08:29.009Z,99709.16
2023-12-09T16:10:56.695Z,99709.13
2023-12-09T16:13:24.974Z,99695.13
2023-12-09T16:15:54.282Z,99695.13
2023-12-09T16:18:22.224Z,99681.13
2023-12-09T16:20:50.649Z,99678.47
2023-12-09T16:23:18.420Z,99682.81
2023-12-09T16:25:46.145Z,99674.03
2023-12-09T16:28:13.858Z,99669.66
2023-12-09T16:30:43.168Z,99662.63
2023-12-09T16:33:12.827Z,99635.53
2023-12-09T16:35:40.625Z,99636.38
2023-12-09T16:38:10.545Z,99642.50
2023-12-09T16:40:38.570Z,99625.91
2023-12-09T16:43:06.351Z,99616.31
2023-12-09T16:45:36.041Z,99611.94
2023-12-09T16:48:09.059Z,99612.81
2023-12-09T16:50:41.342Z,99612.81
2023-12-09T16:53:11.003Z,99609.34
2023-12-09T16:55:44.864Z,99608.44
2023-12-09T16:58:18.134Z,99597.97
2023-12-09T17:00:47.813Z,99595.34
2023-12-09T17:03:16.291Z,99579.63
2023-12-09T17:05:45.397Z,99576.16
2023-12-09T17:08:13.151Z,99569.19
2023-12-09T17:10:45.916Z,99565.72
2023-12-09T17:13:14.956Z,99556.97
2023-12-09T17:15:43.354Z,99551.75
2023-12-09T17:18:11.477Z,99541.25
2023-12-09T17:20:39.766Z,99544.75
2023-12-09T17:23:09.729Z,99541.28
2023-12-09T17:25:37.732Z,99523.78
2023-12-09T17:28:05.713Z,99510.72
2023-12-09T17:30:33.451Z,99494.97
2023-12-09T17:33:01.240Z,99474.81
2023-12-09T17:35:30.444Z,99460.00
2023-12-09T17:37:58.677Z,99444.25
2023-12-09T17:40:28.029Z,99444.25
2023-12-09T17:42:55.904Z,99439.91
2023-12-09T17:45:24.214Z,99432.03
2023-12-09T17:47:52.556Z,99426.78
2023-12-09T17:50:20.449Z,99419.75
2023-12-09T17:52:48.177Z,99426.75
2023-12-09T17:55:16.074Z,99427.59
2023-12-09T17:57:45.624Z,99425.88
2023-12-09T18:00:14.992Z,99418.88
2023-12-09T18:02:43.659Z,99409.22
2023-12-09T18:05:11.537Z,99405.69
2023-12-09T18:07:39.946Z,99397.81
2023-12-09T18:10:08.999Z,99390.88
2023-12-09T18:12:37.094Z,99376.84
2023-12-09T18:15:07.683Z,99371.59
2023-12-09T18:17:35.810Z,99356.72
2023-12-09T18:20:04.058Z,99356.72
2023-12-09T18:22:31.885Z,99353.22
2023-12-09T18:25:01.059Z,99352.31
2023-12-09T18:27:30.324Z,99360.22
2023-12-09T18:29:58.877Z,99364.53
2023-12-09T18:32:29.000Z,99362.81
2023-12-09T18:34:58.903Z,99352.34
2023-12-09T18:37:26.948Z,99346.19
2023-12-09T18:39:54.823Z,99339.22
2023-12-09T18:42:22.535Z,99340.97
2023-12-09T18:44:50.754Z,99344.47
2023-12-09T18:47:20.616Z,99334.88
2023-12-09T18:49:49.757Z,99330.50
2023-12-09T18:52:17.408Z,99328.75
2023-12-09T18:54:45.196Z,99322.63
2023-12-09T18:57:13.016Z,99316.50
2023-12-09T18:59:40.887Z,99311.25
2023-12-09T19:02:14.324Z,99313.00
2023-12-09T19:04:44.339Z,99296.38
2023-12-09T19:07:14.181Z,99283.25
2023-12-09T19:09:43.196Z,99288.50
2023-12-09T19:12:11.979Z,99276.28
2023-12-09T19:14:39.798Z,99280.59
2023-12-09T19:17:07.749Z,99285.84
2023-12-09T19:19:35.713Z,99280.59
2023-12-09T19:22:04.409Z,99277.09
2023-12-09T19:24:33.995Z,99278.84
2023-12-09T19:27:02.188Z,99273.59
2023-12-09T19:29:29.946Z,99270.13
2023-12-09T19:31:57.642Z,99271.00
2023-12-09T19:34:25.819Z,99266.63
2023-12-09T19:36:53.902Z,99266.63
2023-12-09T19:39:21.637Z,99252.66
2023-12-09T19:41:50.836Z,99253.50
2023-12-09T19:44:18.525Z,99243.88
2023-12-09T19:46:46.233Z,99234.28
2023-12-09T19:49:13.988Z,99229.94
2023-12-09T19:51:41.776Z,99233.47
2023-12-09T19:54:09.489Z,99217.72
2023-12-09T19:56:37.399Z,99215.97
2023-12-09T19:59:06.437Z,99212.50
2023-12-09T20:01:34.625Z,99210.75
2023-12-09T20:04:02.389Z,99195.88
2023-12-09T20:06:30.798Z,99202.00
2023-12-09T20:08:59.335Z,99191.50
2023-12-09T20:11:27.418Z,99194.16
2023-12-09T20:13:55.788Z,99194.13
2023-12-09T20:16:25.288Z,99194.13
2023-12-09T20:18:53.192Z,99191.50
2023-12-09T20:21:20.948Z,99189.78
2023-12-09T20:23:49.465Z,99182.78
2023-12-09T20:26:17.589Z,99170.50
2023-12-09T20:28:45.294Z,99167.91
2023-12-09T20:31:14.539Z,99167.88
2023-12-09T20:33:43.944Z,99159.13
2023-12-09T20:36:11.817Z,99151.28
2023-12-09T20:38:39.740Z,99144.28
2023-12-09T20:41:07.857Z,99145.13
2023-12-09T20:43:36.697Z,99126.78
2023-12-09T20:46:05.047Z,99130.31
2023-12-09T20:48:32.753Z,99124.16
2023-12-09T20:51:01.995Z,99111.94
2023-12-09T20:53:30.405Z,99106.69
2023-12-09T20:55:58.282Z,99111.06
2023-12-09T20:58:26.021Z,99102.28
2023-12-09T21:00:53.830Z,99092.66
2023-12-09T21:03:21.668Z,99097.03
2023-12-09T21:05:49.540Z,99089.16
2023-12-09T21:08:18.518Z,99089.19
2023-12-09T21:10:46.234Z,99097.03
2023-12-09T21:13:13.922Z,99076.91
2023-12-09T21:15:42.223Z,99085.66
2023-12-09T21:18:10.473Z,99075.16
2023-12-09T21:20:37.354Z,99082.16
2023-12-09T21:23:05.385Z,99069.91
2023-12-09T21:25:34.421Z,99074.28
2023-12-09T21:28:02.836Z,99080.38
2023-12-09T21:30:30.580Z,99059.41
2023-12-09T21:32:58.953Z,99054.16
2023-12-09T21:35:26.639Z,99047.19
2023-12-09T21:37:54.838Z,99045.44
2023-12-09T21:40:22.540Z,99040.22
2023-12-09T21:42:51.734Z,99045.44
2023-12-09T21:45:19.675Z,99048.94
2023-12-09T21:47:48.456Z,99035.84
2023-12-09T21:50:16.334Z,99040.22
2023-12-09T21:52:44.169Z,99046.34
2023-12-09T21:55:12.381Z,99040.19
2023-12-09T21:57:40.163Z,99027.97
2023-12-09T22:00:10.600Z,99038.47
2023-12-09T22:02:38.706Z,99034.97
2023-12-09T22:05:07.333Z,99041.09
2023-12-09T22:07:35.590Z,99038.47
2023-12-09T22:10:03.333Z,99035.00
2023-12-09T22:12:31.251Z,99027.13
2023-12-09T22:14:59.481Z,99023.63
2023-12-09T22:17:28.907Z,99020.13
2023-12-09T22:19:56.612Z,99044.63
2023-12-09T22:22:24.279Z,99033.25
2023-12-09T22:24:52.053Z,99044.63
2023-12-09T22:27:19.817Z,99035.88
2023-12-09T22:29:47.505Z,99038.50
2023-12-09T22:32:15.267Z,99034.97
2023-12-09T22:34:44.425Z,99042.00
2023-12-09T22:37:12.129Z,99038.50
2023-12-09T22:39:41.097Z,99047.25
2023-12-09T22:42:08.956Z,99038.50
2023-12-09T22:44:36.654Z,99043.75
2023-12-09T22:47:04.719Z,99043.75
2023-12-09T22:49:32.626Z,99038.50
2023-12-09T22:52:03.306Z,99033.25
2023-12-09T22:54:32.223Z,99035.91
2023-12-09T22:57:00.245Z,99035.00
2023-12-09T22:59:28.138Z,99027.16
2023-12-09T23:01:56.182Z,99032.41
2023-12-09T23:04:23.865Z,99035.91
2023-12-09T23:06:51.622Z,99028.91
2023-12-09T23:09:20.754Z,99027.16
2023-12-09T23:11:50.553Z,99025.41
2023-12-09T23:14:18.518Z,99037.66
2023-12-09T23:16:46.863Z,99035.91
2023-12-09T23:19:14.774Z,99027.13
2023-12-09T23:21:43.900Z,99040.25
2023-12-09T23:24:12.184Z,99039.38
2023-12-09T23:26:41.278Z,99030.66
2023-12-09T23:29:10.019Z,99031.50
2023-12-09T23:31:41.709Z,99028.88
2023-12-09T23:34:10.561Z,99028.88
2023-12-09T23:36:38.530Z,99021.03
2023-12-09T23:39:06.241Z,99027.16
2023-12-09T23:41:33.923Z,99028.91
2023-12-09T23:44:03.454Z,99032.38
2023-12-09T23:46:31.272Z,99022.78
2023-12-09T23:49:00.107Z,99012.28
2023-12-09T23:51:27.872Z,99015.78
2023-12-09T23:53:55.649Z,99011.41
2023-12-09T23:56:24.226Z,99011.41
2023-12-09T23:58:52.000Z,99018.41
